Time;durP1;ratioP1;P1;durP2;ratioP2;P2;SDS_P1;SDS_P2;PMS_P1;PMS_P2;Temp;Humidity;BMP_temperature;BMP_pressure;BME280_temperature;BME280_humidity;BME280_pressure;Samples;Min_cycle;Max_cycle;Signal;HPM_P1;HPM_P2
2023/08/24 00:01:51;;;;;;;10.40;3.15;;;;;;;22.56;57.74;100008.69;10291271;28;20043;-75
2023/08/24 00:06:52;;;;;;;15.70;3.30;;;;;;;22.14;57.05;99961.63;10290463;28;20093;-75
2023/08/24 00:11:53;;;;;;;9.93;3.33;;;;;;;22.32;57.28;100027.13;10290578;28;20075;-75
2023/08/24 00:16:54;;;;;;;7.55;3.00;;;;;;;22.04;57.50;100002.91;10290414;28;20173;-74
2023/08/24 00:21:54;;;;;;;5.90;2.80;;;;;;;22.04;56.90;100011.03;10290499;28;20059;-75
2023/08/24 00:26:55;;;;;;;13.35;3.80;;;;;;;21.81;57.33;100018.34;10290168;28;20070;-75
2023/08/24 00:31:57;;;;;;;9.02;3.58;;;;;;;21.63;57.94;100011.34;10297551;28;20042;-75
2023/08/24 00:36:58;;;;;;;26.08;3.70;;;;;;;21.11;58.30;99959.44;10298058;28;20074;-74
2023/08/24 00:41:59;;;;;;;15.82;4.63;;;;;;;21.00;58.96;99963.06;10297337;28;20035;-74
2023/08/24 00:47:00;;;;;;;38.03;5.53;;;;;;;20.54;58.95;99901.03;10297414;28;20043;-75
2023/08/24 00:52:01;;;;;;;34.65;6.78;;;;;;;20.74;59.30;99954.56;10296824;28;20035;-75
2023/08/24 00:57:02;;;;;;;22.48;6.53;;;;;;;21.18;59.30;100041.97;10297223;28;20106;-74
2023/08/24 01:02:03;;;;;;;17.15;5.22;;;;;;;20.73;59.18;99966.38;10296871;28;20133;-75
2023/08/24 01:07:04;;;;;;;17.50;5.05;;;;;;;21.24;59.06;100037.47;10297210;28;20046;-74
2023/08/24 01:12:25;;;;;;;17.45;4.95;;;;;;;21.23;59.34;100022.31;10296643;28;20125;-75
2023/08/24 01:17:29;;;;;;;20.98;5.78;;;;;;;21.19;59.47;100037.38;10296479;28;20042;-74
2023/08/24 01:23:12;;;;;;;11.60;3.97;;;;;;;21.29;60.03;100042.94;10296431;28;20441;-75
2023/08/24 01:28:13;;;;;;;;;;;;;;;21.34;58.91;100053.00;10295753;28;20046;-75
2023/08/24 01:33:14;;;;;;;156.70;11.48;;;;;;;21.02;59.87;100050.88;10278491;28;20008;-75
2023/08/24 01:38:15;;;;;;;17.88;4.78;;;;;;;21.08;59.61;100047.19;10295600;28;20038;-75
2023/08/24 01:43:20;;;;;;;182.20;15.85;;;;;;;20.94;60.31;100054.78;10294188;28;20047;-75
2023/08/24 01:48:22;;;;;;;72.47;9.50;;;;;;;20.81;60.31;100057.78;10294659;28;20467;-75
2023/08/24 01:53:23;;;;;;;43.20;6.22;;;;;;;20.54;60.78;100032.44;10296002;28;20039;-75
2023/08/24 01:58:23;;;;;;;43.60;7.68;;;;;;;20.59;60.75;100046.03;10291787;28;20586;-74
2023/08/24 02:03:24;;;;;;;90.10;10.20;;;;;;;20.55;60.54;100043.00;10294581;28;20078;-75
2023/08/24 02:08:25;;;;;;;111.13;10.50;;;;;;;20.49;60.93;100052.00;10294414;28;20047;-74
2023/08/24 02:13:26;;;;;;;249.38;20.40;;;;;;;20.62;61.15;100067.16;10294630;28;20043;-74
2023/08/24 04:12:53;;;;;;;13.23;4.35;;;;;;;27.12;42.78;100129.19;10514642;27;1681723;-74
2023/08/24 04:17:54;;;;;;;19.98;4.38;;;;;;;27.34;43.00;100082.41;10530322;28;20044;-74
2023/08/24 04:22:56;;;;;;;23.27;5.15;;;;;;;28.11;42.47;100087.94;10530961;28;20040;-74
2023/08/24 04:27:56;;;;;;;15.80;4.20;;;;;;;29.01;41.23;100125.28;10530334;28;20048;-74
2023/08/24 04:32:59;;;;;;;16.38;4.53;;;;;;;28.93;40.13;100084.97;10531099;28;20469;-75
2023/08/24 04:38:00;;;;;;;18.30;4.38;;;;;;;29.32;39.60;100122.13;10530610;28;20040;-75
2023/08/24 04:43:01;;;;;;;10.50;4.30;;;;;;;29.66;38.99;100129.25;10530126;28;20040;-74
2023/08/24 04:48:02;;;;;;;12.57;4.20;;;;;;;29.32;38.45;100045.53;10529938;28;20444;-73
2023/08/24 04:53:03;;;;;;;18.40;3.88;;;;;;;29.93;37.51;100118.34;10530532;28;20044;-73
2023/08/24 04:58:04;;;;;;;13.55;4.07;;;;;;;29.52;37.74;100121.78;10529536;28;20089;-73
2023/08/24 05:03:05;;;;;;;61.33;6.35;;;;;;;29.05;39.39;100115.44;10490153;28;20523;-73
2023/08/24 05:08:09;;;;;;;10.70;4.07;;;;;;;29.00;39.01;100126.41;10487524;28;20043;-72
2023/08/24 05:13:10;;;;;;;13.63;4.03;;;;;;;28.89;39.36;100109.34;10464491;28;20044;-73
2023/08/24 05:18:11;;;;;;;12.13;3.88;;;;;;;29.03;38.78;100120.38;10459505;28;20047;-73
2023/08/24 05:23:11;;;;;;;8.32;3.70;;;;;;;29.10;38.55;100120.81;10459946;28;20041;-72
2023/08/24 05:28:12;;;;;;;32.17;5.38;;;;;;;29.23;39.26;100113.78;10459032;28;20040;-73
2023/08/24 05:33:13;;;;;;;14.20;4.60;;;;;;;29.23;38.26;100107.50;10459285;28;20079;-73
2023/08/24 05:38:15;;;;;;;11.63;4.65;;;;;;;29.05;37.99;100112.72;10459265;28;20043;-73
2023/08/24 05:43:16;;;;;;;15.32;5.13;;;;;;;29.16;38.01;100112.53;10458636;28;20083;-73
2023/08/24 05:48:17;;;;;;;9.25;4.47;;;;;;;29.41;37.46;100114.88;10458801;28;20060;-73
2023/08/24 05:53:17;;;;;;;12.63;4.72;;;;;;;29.54;37.37;100097.66;10459090;28;20412;-73
2023/08/24 05:58:18;;;;;;;13.43;5.13;;;;;;;29.72;37.12;100119.84;10458575;28;20064;-73
2023/08/24 06:03:19;;;;;;;11.55;5.07;;;;;;;29.65;37.10;100108.47;10458297;28;20076;-73
2023/08/24 06:08:20;;;;;;;12.77;5.30;;;;;;;29.63;36.78;100108.75;10457419;28;20435;-73
2023/08/24 06:13:20;;;;;;;24.65;5.40;;;;;;;29.63;37.39;100069.63;10458255;28;20070;-73
2023/08/24 06:18:21;;;;;;;15.98;5.38;;;;;;;29.58;36.31;100043.94;10458258;28;20448;-73
2023/08/24 06:23:22;;;;;;;16.40;4.93;;;;;;;29.86;36.24;100097.97;10456667;28;20041;-72
2023/08/24 06:28:23;;;;;;;15.93;4.97;;;;;;;29.76;35.98;100060.63;10456683;28;20456;-72
2023/08/24 06:33:34;;;;;;;9.75;4.45;;;;;;;30.37;35.97;100116.97;10456643;28;20044;-72
2023/08/24 06:38:35;;;;;;;12.63;4.28;;;;;;;29.92;35.31;100055.69;10457129;28;20039;-73
2023/08/24 06:43:37;;;;;;;10.07;3.72;;;;;;;30.06;35.44;100045.50;10456354;28;20477;-73
2023/08/24 06:48:39;;;;;;;18.95;4.43;;;;;;;30.53;35.74;100083.75;10456516;28;20045;-73
2023/08/24 06:53:39;;;;;;;7.68;3.67;;;;;;;30.79;34.46;100100.47;10455835;28;20137;-73
2023/08/24 06:58:40;;;;;;;10.43;3.50;;;;;;;30.79;34.49;100087.59;10455997;28;20032;-72
2023/08/24 07:03:41;;;;;;;9.50;3.70;;;;;;;30.95;34.30;100103.69;10456764;28;20049;-72
2023/08/24 07:08:42;;;;;;;9.73;3.70;;;;;;;30.59;34.23;100016.72;10455180;28;20484;-72
2023/08/24 07:13:43;;;;;;;6.63;3.20;;;;;;;30.65;33.97;100021.78;10455701;28;20049;-72
2023/08/24 07:18:43;;;;;;;9.30;3.13;;;;;;;30.95;33.29;100079.78;10454960;28;20036;-74
2023/08/24 07:23:44;;;;;;;8.60;3.33;;;;;;;31.03;32.91;100092.78;10455565;28;20523;-73
2023/08/24 07:28:45;;;;;;;15.57;3.28;;;;;;;31.28;32.89;100079.56;10455080;28;20179;-73
2023/08/24 07:33:46;;;;;;;8.05;3.08;;;;;;;31.38;32.66;100071.06;10454127;28;20063;-73
2023/08/24 07:38:47;;;;;;;9.48;3.10;;;;;;;31.60;32.28;100070.25;10454139;28;20045;-73
2023/08/24 07:43:48;;;;;;;8.27;3.22;;;;;;;31.79;31.99;100070.81;10455112;28;20037;-73
2023/08/24 07:48:49;;;;;;;11.25;3.00;;;;;;;31.60;32.13;100073.00;10455140;28;20466;-73
2023/08/24 07:53:52;;;;;;;5.97;3.05;;;;;;;31.58;31.81;100058.75;10454469;28;20041;-73
2023/08/24 07:58:52;;;;;;;;;;;;;;;31.99;32.02;100063.97;10451638;28;20114;-73
2023/08/24 08:03:53;;;;;;;10.32;3.20;;;;;;;31.47;31.19;100058.25;10453334;28;19968;-74
2023/08/24 08:08:54;;;;;;;7.35;3.05;;;;;;;31.62;31.57;100065.25;10435723;28;20049;-73
2023/08/24 08:13:55;;;;;;;6.18;2.90;;;;;;;31.65;30.97;100052.81;10431627;28;20531;-74
2023/08/24 08:18:55;;;;;;;7.60;3.25;;;;;;;31.61;30.67;100055.38;10432553;28;20091;-73
2023/08/24 08:23:56;;;;;;;6.40;2.92;;;;;;;31.84;30.94;100070.69;10435520;28;20083;-74
2023/08/24 08:28:57;;;;;;;15.95;4.05;;;;;;;32.13;30.90;100058.38;10430647;28;20073;-74
2023/08/24 08:33:57;;;;;;;23.98;5.00;;;;;;;32.05;31.22;100018.75;10433107;28;20078;-73
2023/08/24 08:38:59;;;;;;;12.38;3.67;;;;;;;32.12;29.78;100040.25;10434468;28;20501;-74
2023/08/24 08:44:04;;;;;;;12.60;3.92;;;;;;;32.16;30.18;100052.22;10431143;28;20041;-74
2023/08/24 08:49:07;;;;;;;5.05;3.25;;;;;;;31.83;30.00;99992.16;10437170;28;20488;-74
2023/08/24 08:54:08;;;;;;;9.68;3.40;;;;;;;32.15;29.96;100044.28;10438050;28;20038;-74
2023/08/24 08:59:14;;;;;;;8.65;3.30;;;;;;;32.15;29.40;100050.59;10444178;28;20037;-73
2023/08/24 09:04:15;;;;;;;8.07;3.75;;;;;;;32.20;29.48;100047.72;10440214;28;20080;-74
2023/08/24 09:09:16;;;;;;;27.77;4.38;;;;;;;32.27;29.74;100049.97;10438501;28;20056;-73
2023/08/24 09:14:17;;;;;;;7.30;3.00;;;;;;;31.99;29.33;99986.25;10444792;28;20045;-74
2023/08/24 09:19:18;;;;;;;15.35;4.07;;;;;;;31.94;29.03;99967.16;10437354;28;20404;-74
2023/08/24 09:24:29;;;;;;;8.32;3.03;;;;;;;32.53;28.61;100017.06;10442014;28;20045;-74
2023/08/24 09:29:36;;;;;;;48.40;5.53;;;;;;;32.80;31.46;100035.16;10421194;28;20555;-74
2023/08/24 09:34:37;;;;;;;13.52;4.07;;;;;;;32.88;29.90;100028.06;10437118;28;20029;-74
2023/08/24 09:39:38;;;;;;;9.55;3.30;;;;;;;32.73;29.80;100010.91;10440458;28;20036;-74
2023/08/24 09:44:44;;;;;;;16.33;3.38;;;;;;;32.71;29.68;100001.38;10456077;28;20052;-74
2023/08/24 09:49:46;;;;;;;8.20;3.15;;;;;;;32.74;29.39;100007.03;10458869;28;20041;-74
2023/08/24 09:54:47;;;;;;;;;;;;;;;33.12;29.21;100022.88;10459758;28;20087;-74
2023/08/24 09:59:49;;;;;;;5.35;2.95;;;;;;;32.62;29.15;100014.31;10457754;28;19970;-74
2023/08/24 10:04:54;;;;;;;8.88;3.58;;;;;;;32.59;29.37;99998.47;10457379;28;20048;-74
2023/08/24 10:10:00;;;;;;;4.15;2.97;;;;;;;32.54;29.21;99955.41;10457306;28;20063;-74
2023/08/24 10:15:12;;;;;;;12.85;3.60;;;;;;;32.56;29.08;100010.91;10457406;28;20067;-74
2023/08/24 10:20:14;;;;;;;6.32;3.47;;;;;;;32.45;29.20;99995.84;10457235;28;20040;-73
2023/08/24 10:25:16;;;;;;;10.70;3.25;;;;;;;32.48;28.96;100004.25;10455762;28;20087;-74
2023/08/24 10:30:19;;;;;;;6.88;3.30;;;;;;;32.62;28.95;100006.06;10457480;28;20040;-74
2023/08/24 10:35:22;;;;;;;8.60;3.13;;;;;;;32.77;28.99;99993.75;10457409;28;20041;-74
2023/08/24 10:40:33;;;;;;;14.48;3.72;;;;;;;32.72;29.40;99958.97;10437911;28;20097;-74
2023/08/24 10:45:57;;;;;;;12.27;3.53;;;;;;;32.88;28.91;99984.03;10441281;28;20132;-74
2023/08/24 10:51:19;;;;;;;11.15;3.47;;;;;;;32.86;29.60;99975.28;10433434;28;20405;-73
2023/08/24 10:56:20;;;;;;;;;;;;;;;33.24;28.95;99980.09;10441079;28;20057;-73
2023/08/24 11:01:22;;;;;;;11.20;3.70;;;;;;;33.10;28.59;99975.59;10434020;28;19923;-73
2023/08/24 11:06:25;;;;;;;15.77;3.58;;;;;;;33.09;28.29;99953.91;10442574;28;20045;-74
2023/08/24 11:11:26;;;;;;;16.55;3.50;;;;;;;33.02;27.99;99909.56;10453668;28;20111;-73
2023/08/24 11:16:44;;;;;;;4.93;3.17;;;;;;;33.36;28.65;99966.44;10455730;28;20469;-74
2023/08/24 11:21:46;;;;;;;13.00;3.45;;;;;;;33.24;28.31;99956.13;10455723;28;20043;-73
2023/08/24 11:26:49;;;;;;;11.90;3.47;;;;;;;33.10;28.39;99950.81;10454428;28;20084;-74
2023/08/24 11:31:51;;;;;;;15.85;3.90;;;;;;;33.15;28.39;99947.09;10451946;28;20079;-75
2023/08/24 11:36:53;;;;;;;18.38;3.40;;;;;;;32.96;28.42;99922.66;10454368;28;20047;-73
2023/08/24 11:42:02;;;;;;;10.30;4.15;;;;;;;32.85;28.72;99894.72;10454995;28;20131;-74
2023/08/24 11:47:03;;;;;;;16.85;3.30;;;;;;;32.97;28.14;99943.56;10437193;28;20036;-74
2023/08/24 11:52:04;;;;;;;13.98;3.30;;;;;;;33.13;28.48;99935.59;10436094;28;20044;-74
2023/08/24 11:57:08;;;;;;;9.15;3.42;;;;;;;33.19;27.41;99945.28;10453127;28;20119;-73
2023/08/24 12:02:11;;;;;;;9.35;3.40;;;;;;;32.97;27.66;99918.78;10453747;28;20068;-74
2023/08/24 12:07:12;;;;;;;7.97;3.03;;;;;;;32.92;27.88;99924.47;10449557;28;20057;-74
2023/08/24 12:12:18;;;;;;;16.47;4.07;;;;;;;33.13;27.96;99924.59;10413614;28;20065;-73
2023/08/24 12:17:19;;;;;;;7.30;3.20;;;;;;;32.71;27.70;99848.16;10435500;28;20049;-73
2023/08/24 12:22:20;;;;;;;12.57;3.63;;;;;;;33.12;27.69;99914.72;10438405;28;20185;-73
2023/08/24 12:27:26;;;;;;;6.32;3.50;;;;;;;32.96;27.44;99917.97;10461893;28;20438;-73
2023/08/24 12:32:42;;;;;;;5.75;3.30;;;;;;;32.88;27.51;99902.31;10440935;28;20116;-73
2023/08/24 12:37:43;;;;;;;4.80;3.40;;;;;;;33.07;27.52;99921.22;10450933;28;20041;-74
2023/08/24 12:42:43;;;;;;;5.13;2.78;;;;;;;33.11;27.84;99900.13;10460299;28;20124;-75
2023/08/24 12:47:44;;;;;;;9.45;3.13;;;;;;;32.93;28.14;99901.31;10422621;28;20065;-74
2023/08/24 12:52:45;;;;;;;7.05;3.50;;;;;;;32.68;28.42;99898.31;10421774;28;20115;-74
2023/08/24 12:57:46;;;;;;;10.10;3.72;;;;;;;32.80;28.60;99878.38;10419346;28;20033;-74
2023/08/24 13:02:47;;;;;;;6.25;3.30;;;;;;;32.81;27.94;99890.19;10458553;28;20049;-74
2023/08/24 13:07:47;;;;;;;20.50;3.50;;;;;;;32.21;28.24;99812.97;10459162;28;20037;-74
2023/08/24 13:12:48;;;;;;;11.73;3.90;;;;;;;32.58;27.89;99864.84;10418753;28;20053;-73
2023/08/24 13:17:49;;;;;;;9.35;3.55;;;;;;;32.63;28.18;99886.66;10442140;28;20412;-73
2023/08/24 13:22:50;;;;;;;9.60;3.10;;;;;;;32.25;27.88;99822.19;10430917;28;20045;-74
2023/08/24 13:27:50;;;;;;;16.98;3.80;;;;;;;32.63;28.23;99873.72;10431729;28;20037;-74
2023/08/24 13:32:51;;;;;;;19.00;4.05;;;;;;;32.53;28.16;99901.56;10458404;28;20037;-74
2023/08/24 13:37:52;;;;;;;15.43;3.80;;;;;;;32.36;28.12;99910.59;10458494;28;20048;-74
2023/08/24 13:42:53;;;;;;;10.73;3.53;;;;;;;31.65;28.00;99779.06;10456999;28;20045;-74
2023/08/24 13:47:53;;;;;;;16.83;3.63;;;;;;;32.43;28.14;99896.41;10459032;28;20047;-74
2023/08/24 13:52:55;;;;;;;13.85;3.80;;;;;;;32.35;27.79;99899.94;10458832;28;20064;-74
2023/08/24 13:57:56;;;;;;;17.42;3.92;;;;;;;32.29;28.42;99904.81;10441531;28;20067;-74
2023/08/24 14:02:57;;;;;;;11.85;3.70;;;;;;;32.18;28.50;99898.00;10457850;28;20051;-74
2023/08/24 14:07:58;;;;;;;129.55;9.65;;;;;;;32.22;29.07;99896.25;10458159;28;20127;-74
2023/08/24 14:12:58;;;;;;;13.27;3.97;;;;;;;32.02;29.10;99900.44;10458638;28;20057;-74
2023/08/24 14:17:59;;;;;;;14.27;3.75;;;;;;;31.97;29.24;99898.63;10458708;28;20132;-74
2023/08/24 14:23:01;;;;;;;32.33;5.70;;;;;;;31.73;29.42;99901.81;10456888;28;20036;-74
2023/08/24 14:28:02;;;;;;;13.13;4.05;;;;;;;31.12;29.94;99815.75;10456598;28;20115;-74
2023/08/24 14:33:03;;;;;;;38.95;5.10;;;;;;;31.49;29.72;99890.47;10439514;28;20618;-74
2023/08/24 14:38:04;;;;;;;31.00;6.03;;;;;;;31.33;30.13;99893.59;10445201;28;20045;-75
2023/08/24 14:43:05;;;;;;;49.13;6.50;;;;;;;30.89;30.82;99861.63;10455970;28;20494;-75
2023/08/24 14:48:06;;;;;;;12.70;3.85;;;;;;;30.55;31.20;99879.50;10456807;28;20052;-74
2023/08/24 14:53:06;;;;;;;18.30;4.72;;;;;;;30.47;31.68;99893.94;10457491;28;20044;-75
2023/08/24 14:58:07;;;;;;;36.78;4.95;;;;;;;30.39;31.37;99908.38;10455756;28;20122;-75
2023/08/24 15:03:08;;;;;;;20.40;4.43;;;;;;;30.21;31.77;99904.69;10455956;28;20036;-73
2023/08/24 15:08:11;;;;;;;155.02;13.63;;;;;;;29.64;33.06;99852.28;10456049;28;20131;-75
2023/08/24 15:13:11;;;;;;;19.50;5.05;;;;;;;29.77;32.90;99896.06;10456966;28;20060;-74
2023/08/24 15:18:12;;;;;;;26.25;10.35;;;;;;;29.16;33.12;99836.28;10455091;28;20045;-75
2023/08/24 15:23:28;;;;;;;43.95;12.35;;;;;;;29.40;33.94;99899.81;10454850;28;20544;-74
2023/08/24 15:28:55;;;;;;;29.70;8.77;;;;;;;29.27;34.03;99930.72;10455131;28;20236;-74
2023/08/24 15:33:56;;;;;;;25.73;6.00;;;;;;;28.83;34.26;99893.75;10437089;28;20061;-74
2023/08/24 15:38:57;;;;;;;24.77;5.03;;;;;;;28.62;34.17;99893.28;10455395;28;20100;-75
2023/08/24 15:43:57;;;;;;;15.65;4.90;;;;;;;28.52;34.31;99897.00;10454157;28;20068;-74
2023/08/24 15:48:58;;;;;;;11.60;4.75;;;;;;;27.79;34.36;99807.44;10454439;28;20041;-75
2023/08/24 15:54:00;;;;;;;33.08;10.43;;;;;;;28.38;34.91;99926.16;10454317;28;20040;-75
2023/08/24 15:59:01;;;;;;;58.67;13.90;;;;;;;27.38;35.51;99794.34;10436627;28;20041;-75
2023/08/24 16:04:02;;;;;;;142.30;24.23;;;;;;;27.95;36.55;99926.22;10454244;28;20040;-75
2023/08/24 16:09:03;;;;;;;98.50;16.23;;;;;;;27.35;36.80;99868.56;10453930;28;20144;-75
2023/08/24 16:14:05;;;;;;;31.73;10.13;;;;;;;27.50;38.44;99942.03;10454094;28;20562;-75
2023/08/24 16:19:05;;;;;;;29.40;7.00;;;;;;;26.96;38.54;99899.50;10449421;28;20120;-74
2023/08/24 16:24:08;;;;;;;19.80;4.95;;;;;;;27.15;38.47;99959.59;10453445;28;20124;-75
2023/08/24 16:29:09;;;;;;;17.08;5.47;;;;;;;26.65;37.97;99886.13;10454165;28;20456;-75
2023/08/24 16:34:10;;;;;;;19.63;5.32;;;;;;;26.52;37.82;99895.78;10433487;28;20041;-75
2023/08/24 16:39:11;;;;;;;20.48;5.93;;;;;;;26.43;37.93;99913.81;10449574;28;20695;-75
2023/08/24 16:44:12;;;;;;;29.92;6.55;;;;;;;26.52;38.36;99941.28;10454112;28;20203;-75
2023/08/24 16:49:13;;;;;;;18.95;5.57;;;;;;;26.62;38.30;99991.06;10453661;28;20048;-75
2023/08/24 16:54:13;;;;;;;17.23;5.38;;;;;;;26.28;38.92;99965.66;10452981;28;20041;-75
2023/08/24 16:59:14;;;;;;;17.83;6.80;;;;;;;26.35;39.93;100005.06;10451027;28;20071;-75
2023/08/24 17:04:15;;;;;;;26.27;11.35;;;;;;;25.72;39.10;99920.44;10452338;28;20045;-75
2023/08/24 17:09:16;;;;;;;24.92;14.98;;;;;;;26.05;38.46;99997.06;10458478;28;20148;-75
2023/08/24 17:14:17;;;;;;;44.95;21.30;;;;;;;26.00;38.54;100000.66;10460269;28;20043;-75
2023/08/24 17:19:18;;;;;;;24.98;12.02;;;;;;;25.95;38.10;100009.63;10458507;28;20041;-75
2023/08/24 17:24:18;;;;;;;32.05;14.02;;;;;;;25.95;38.01;100014.25;10454938;28;20052;-75
2023/08/24 17:29:19;;;;;;;29.30;12.30;;;;;;;25.84;37.72;99999.06;10449623;28;20048;-74
2023/08/24 17:34:20;;;;;;;48.78;19.55;;;;;;;25.93;37.17;100016.44;10455933;28;20088;-74
2023/08/24 17:39:21;;;;;;;29.52;14.02;;;;;;;25.96;36.96;100035.75;10453854;28;20049;-74
2023/08/24 17:44:22;;;;;;;32.40;10.65;;;;;;;25.92;37.10;100025.72;10441597;28;20126;-75
2023/08/24 17:49:22;;;;;;;42.47;15.93;;;;;;;25.83;37.19;100020.03;10458325;28;20052;-74
2023/08/24 17:54:23;;;;;;;32.22;13.15;;;;;;;25.73;37.10;100004.50;10458027;28;20087;-74
2023/08/24 17:59:24;;;;;;;22.50;9.35;;;;;;;25.81;37.23;100015.91;10458291;28;20052;-75
2023/08/24 18:04:24;;;;;;;24.13;10.52;;;;;;;25.84;36.42;100020.81;10458380;28;20104;-75
2023/08/24 18:09:25;;;;;;;36.25;13.38;;;;;;;25.76;36.30;100007.75;10440262;28;20057;-74
2023/08/24 18:14:26;;;;;;;30.00;12.27;;;;;;;25.79;36.03;100009.94;10457392;28;20047;-75
2023/08/24 18:19:27;;;;;;;26.67;9.68;;;;;;;25.82;35.26;100029.28;10457830;28;20407;-74
2023/08/24 18:24:28;;;;;;;12.50;4.07;;;;;;;25.39;35.89;99970.88;10457763;28;20135;-74
2023/08/24 18:29:29;;;;;;;9.40;3.25;;;;;;;25.52;36.03;100019.25;10455999;28;20041;-75
2023/08/24 18:34:29;;;;;;;15.02;2.75;;;;;;;25.48;35.51;100031.75;10457416;28;20045;-75
2023/08/24 18:39:30;;;;;;;19.25;4.57;;;;;;;25.39;35.69;100030.69;10457085;28;20128;-75
2023/08/24 18:44:31;;;;;;;11.65;4.72;;;;;;;25.05;35.64;100009.47;10456238;28;20493;-74
2023/08/24 18:49:31;;;;;;;5.60;3.28;;;;;;;25.12;36.07;100011.91;10438787;28;20049;-75
2023/08/24 18:54:32;;;;;;;18.00;5.20;;;;;;;24.64;36.19;99952.41;10457038;28;20186;-75
2023/08/24 18:59:33;;;;;;;26.23;4.35;;;;;;;24.71;36.96;99985.56;10438754;28;20048;-75
2023/08/24 19:04:34;;;;;;;22.80;5.93;;;;;;;24.64;37.31;100000.50;10456228;28;20056;-75
2023/08/24 19:09:36;;;;;;;38.88;4.95;;;;;;;24.35;37.18;99962.91;10455305;28;20061;-75
2023/08/24 19:14:37;;;;;;;11.63;3.03;;;;;;;24.70;37.43;100021.94;10455243;28;20409;-75
2023/08/24 19:19:38;;;;;;;19.17;5.35;;;;;;;24.71;36.19;100022.75;10454540;28;20033;-75
2023/08/24 19:24:39;;;;;;;43.30;6.65;;;;;;;24.55;35.88;100001.00;10455374;28;20040;-75
2023/08/24 19:29:40;;;;;;;39.05;6.15;;;;;;;24.45;36.38;100000.19;10452803;28;20073;-75
2023/08/24 19:34:40;;;;;;;13.73;4.03;;;;;;;24.33;37.98;100024.84;10454731;28;20036;-74
2023/08/24 19:39:41;;;;;;;26.40;4.63;;;;;;;23.84;39.29;99988.03;10437129;28;20064;-75
2023/08/24 19:44:42;;;;;;;47.33;4.53;;;;;;;23.84;40.27;100007.00;10454272;28;20052;-75
2023/08/24 19:49:43;;;;;;;18.35;4.30;;;;;;;23.71;41.91;100009.38;10454093;28;20045;-75
2023/08/24 19:54:43;;;;;;;22.02;4.07;;;;;;;23.49;42.66;100004.88;10454236;28;20484;-75
2023/08/24 19:59:44;;;;;;;11.90;3.22;;;;;;;23.11;42.88;99973.44;10454168;28;20037;-74
2023/08/24 20:04:45;;;;;;;18.17;3.63;;;;;;;23.28;43.78;100016.66;10453692;28;20041;-74
2023/08/24 20:09:46;;;;;;;16.83;3.38;;;;;;;23.02;44.84;99994.78;10453128;28;20064;-75
2023/08/24 20:14:47;;;;;;;46.92;5.00;;;;;;;23.21;44.73;100014.16;10453663;28;20120;-74
2023/08/24 20:19:49;;;;;;;48.05;5.70;;;;;;;23.37;44.68;100015.09;10453586;28;20052;-75
2023/08/24 20:24:50;;;;;;;34.03;4.93;;;;;;;23.45;45.10;100025.44;10452359;28;20053;-74
2023/08/24 20:29:50;;;;;;;35.67;5.15;;;;;;;23.12;45.04;99967.75;10451767;28;20070;-74
2023/08/24 20:34:51;;;;;;;28.75;4.57;;;;;;;23.33;46.05;100024.81;10453307;28;20045;-74
2023/08/24 20:39:52;;;;;;;23.98;4.15;;;;;;;22.81;47.06;99987.53;10453200;28;20500;-74
2023/08/24 20:44:54;;;;;;;26.27;3.42;;;;;;;23.01;47.82;100034.59;10443256;28;20132;-74
2023/08/24 20:49:55;;;;;;;24.20;3.08;;;;;;;23.01;48.92;100020.25;10461418;28;20041;-74
2023/08/24 20:54:56;;;;;;;26.25;3.53;;;;;;;22.96;48.82;100028.31;10461267;28;20040;-74
2023/08/24 20:59:57;;;;;;;38.58;4.28;;;;;;;22.79;49.32;100009.44;10461013;28;20037;-74
2023/08/24 21:04:58;;;;;;;20.90;3.75;;;;;;;22.75;49.62;100017.25;10461107;28;20037;-74
2023/08/24 21:09:59;;;;;;;20.00;3.88;;;;;;;22.48;50.66;99983.97;10460636;28;20428;-74
2023/08/24 21:15:00;;;;;;;12.02;3.65;;;;;;;22.71;50.27;99999.09;10461742;28;20131;-74
2023/08/24 21:20:00;;;;;;;20.55;3.65;;;;;;;22.62;51.06;99962.72;10460807;28;20127;-74
2023/08/24 21:25:02;;;;;;;13.07;3.88;;;;;;;22.59;51.14;99957.81;10459706;28;20128;-74
2023/08/24 21:30:04;;;;;;;10.10;3.65;;;;;;;22.77;50.89;100004.28;10442017;28;20074;-74
2023/08/24 21:35:05;;;;;;;20.25;4.30;;;;;;;22.32;52.10;99940.53;10441924;28;20052;-74
2023/08/24 21:40:06;;;;;;;29.38;4.55;;;;;;;22.55;52.58;99989.97;10441159;28;20040;-74
2023/08/24 21:45:07;;;;;;;24.55;4.57;;;;;;;22.52;53.18;100001.31;10459125;28;20044;-74
2023/08/24 21:50:08;;;;;;;15.68;4.50;;;;;;;22.39;53.01;100017.97;10459845;28;20060;-74
2023/08/24 21:55:09;;;;;;;19.48;3.38;;;;;;;22.21;53.13;100014.53;10458056;28;20040;-74
2023/08/24 22:00:13;;;;;;;11.82;3.50;;;;;;;22.02;54.38;100014.00;10458718;28;20051;-74
2023/08/24 22:05:14;;;;;;;14.93;3.30;;;;;;;21.96;54.21;100008.78;10458593;28;20063;-74
2023/08/24 22:10:14;;;;;;;9.90;3.13;;;;;;;21.40;54.09;99938.56;10458438;28;20056;-74
2023/08/24 22:15:15;;;;;;;16.73;2.92;;;;;;;21.74;54.12;100023.09;10458645;28;20048;-74
2023/08/24 22:20:17;;;;;;;15.77;3.35;;;;;;;21.60;53.61;100008.31;10440794;28;20493;-74
2023/08/24 22:25:19;;;;;;;25.10;3.28;;;;;;;21.38;54.11;100009.06;10457323;28;20041;-74
2023/08/24 22:30:20;;;;;;;24.67;3.83;;;;;;;21.48;54.64;100027.34;10457019;28;20048;-74
2023/08/24 22:35:21;;;;;;;16.20;3.10;;;;;;;21.45;55.25;100022.41;10439707;28;20555;-74
2023/08/24 22:40:22;;;;;;;14.45;3.03;;;;;;;21.46;55.59;100007.84;10456580;28;20125;-74
2023/08/24 22:45:26;;;;;;;17.17;3.08;;;;;;;21.28;55.69;100013.47;10456338;28;20488;-74
2023/08/24 22:50:26;;;;;;;;;;;;;;;21.56;55.25;100026.06;10455823;28;20047;-74
2023/08/24 22:55:27;;;;;;;11.55;3.03;;;;;;;21.04;55.17;100000.13;10457237;28;20007;-74
2023/08/24 23:00:28;;;;;;;7.40;2.38;;;;;;;20.89;55.44;100003.41;10438515;28;20041;-74
2023/08/24 23:05:28;;;;;;;14.40;2.92;;;;;;;20.52;55.67;99967.91;10454857;28;20044;-74
2023/08/24 23:10:29;;;;;;;9.88;2.60;;;;;;;20.50;55.83;99995.13;10437639;28;20151;-74
2023/08/24 23:15:30;;;;;;;18.75;2.55;;;;;;;20.61;55.95;100025.00;10437564;28;20041;-74
2023/08/24 23:20:31;;;;;;;14.13;2.72;;;;;;;20.26;56.02;99964.72;10456600;28;20047;-74
2023/08/24 23:25:32;;;;;;;7.70;2.35;;;;;;;20.59;55.49;100017.19;10454826;28;20415;-74
2023/08/24 23:30:34;;;;;;;12.15;3.03;;;;;;;20.46;56.00;99995.84;10455448;28;20052;-74
2023/08/24 23:35:35;;;;;;;27.10;3.92;;;;;;;19.86;56.65;99932.38;10455170;28;20388;-74
2023/08/24 23:40:36;;;;;;;17.10;2.63;;;;;;;20.01;56.90;100023.53;10454596;28;20111;-75
2023/08/24 23:45:37;;;;;;;22.27;3.47;;;;;;;19.72;57.11;99990.34;10454202;28;20504;-74
2023/08/24 23:50:37;;;;;;;8.52;3.13;;;;;;;19.68;57.75;100016.09;10453980;28;20072;-73
2023/08/24 23:55:38;;;;;;;9.65;2.50;;;;;;;19.73;58.35;100014.34;10437450;28;20040;-74
